Terminal Aerodrome Forecast
Issued by NWS Oklahoma City, OK

Home | Current Version | Previous Version | Text Only | Print | Product List | Glossary On
Versions: 1 2 3 4 5 6 7 8 9 10 11 12 13 14 15 16 17 18 19 20 21 22 23 24 25 26 27 28 29 30 31 32
000
FTUS44 KOUN 261729
TAFOUN
TAF
KOUN 261729Z 2618/2718 01020G28KT P6SM SCT100 BKN200
     FM270000 01015KT P6SM OVC100
     FM271400 05010KT P6SM SCT020 OVC050 PROB30 2715/2718 3SM -SN
      OVC050=

USA.gov is the U.S. government's official web portal to all federal, state and local government web resources and services.